Time;durP1;ratioP1;P1;durP2;ratioP2;P2;SDS_P1;SDS_P2;PMS_P1;PMS_P2;Temp;Humidity;BMP_temperature;BMP_pressure;BME280_temperature;BME280_humidity;BME280_pressure;Samples;Min_cycle;Max_cycle;Signal;HPM_P1;HPM_P2
2023/11/30 00:01:50;;;;;;;;;;;6.10;99.90;;;;;;4996152;28;19920;-75
2023/11/30 00:04:15;;;;;;;;;;;6.10;99.90;;;;;;5008447;28;19917;-74
2023/11/30 00:06:41;;;;;;;;;;;6.10;99.90;;;;;;5014513;28;20348;-74
2023/11/30 00:09:06;;;;;;;;;;;6.00;99.90;;;;;;5015583;28;19914;-74
2023/11/30 00:11:32;;;;;;;;;;;6.00;99.90;;;;;;5015900;28;19922;-73
2023/11/30 00:13:57;;;;;;;;;;;6.00;99.90;;;;;;5015797;28;19955;-73
2023/11/30 00:16:23;;;;;;;;;;;5.90;99.90;;;;;;5015573;28;19936;-73
2023/11/30 00:18:48;;;;;;;;;;;5.90;99.90;;;;;;5012195;28;19957;-73
2023/11/30 00:21:14;;;;;;;;;;;5.90;99.90;;;;;;4998567;28;19914;-74
2023/11/30 00:23:39;;;;;;;;;;;5.80;99.90;;;;;;5009872;28;19960;-73
2023/11/30 00:26:05;;;;;;;;;;;5.90;99.90;;;;;;5015196;28;20284;-73
2023/11/30 00:28:30;;;;;;;;;;;5.90;99.90;;;;;;5002973;28;19910;-73
2023/11/30 00:30:56;;;;;;;;;;;5.90;99.90;;;;;;4996027;28;19924;-74
2023/11/30 00:33:21;;;;;;;;;;;5.90;99.90;;;;;;5006480;28;19928;-73
2023/11/30 00:35:47;;;;;;;;;;;5.80;99.90;;;;;;5015308;28;19953;-73
2023/11/30 00:38:13;;;;;;;;;;;5.80;99.90;;;;;;5015125;28;20394;-73
2023/11/30 00:40:39;;;;;;;;;;;5.80;99.90;;;;;;5011494;28;19910;-73
2023/11/30 00:43:05;;;;;;;;;;;5.80;99.90;;;;;;4995422;28;19916;-74
2023/11/30 00:45:30;;;;;;;;;;;5.80;99.90;;;;;;4995535;28;20288;-74
2023/11/30 00:47:56;;;;;;;;;;;5.80;99.90;;;;;;4995310;28;19921;-74
2023/11/30 00:50:21;;;;;;;;;;;5.80;99.90;;;;;;4995131;28;20479;-74
2023/11/30 00:52:47;;;;;;;;;;;5.80;99.90;;;;;;5002581;28;19915;-73
2023/11/30 00:55:12;;;;;;;;;;;5.90;99.90;;;;;;5014849;28;19910;-74
2023/11/30 00:57:38;;;;;;;;;;;5.80;99.90;;;;;;5014715;28;19914;-74
2023/11/30 01:00:05;;;;;;;;;;;5.90;99.90;;;;;;5014679;28;19916;-74
2023/11/30 01:02:31;;;;;;;;;;;5.90;99.90;;;;;;5014142;28;19909;-73
2023/11/30 01:04:57;;;;;;;;;;;5.90;99.90;;;;;;5014524;28;19914;-73
2023/11/30 01:07:22;;;;;;;;;;;5.80;99.90;;;;;;5015021;28;19909;-74
2023/11/30 01:09:49;;;;;;;;;;;5.80;99.90;;;;;;5014417;28;19917;-74
2023/11/30 01:12:14;;;;;;;;;;;5.80;99.90;;;;;;5008006;28;19914;-74
2023/11/30 01:14:40;;;;;;;;;;;5.80;99.90;;;;;;4994071;28;19910;-73
2023/11/30 01:17:07;;;;;;;;;;;5.80;99.90;;;;;;4995152;28;19917;-73
2023/11/30 01:19:32;;;;;;;;;;;5.80;99.90;;;;;;5009475;28;19917;-75
2023/11/30 01:21:58;;;;;;;;;;;5.80;99.90;;;;;;5013756;28;19909;-74
2023/11/30 01:24:23;;;;;;;;;;;5.80;99.90;;;;;;5014139;28;20345;-74
2023/11/30 01:26:49;;;;;;;;;;;5.80;99.90;;;;;;5014414;28;19909;-75
2023/11/30 01:29:14;;;;;;;;;;;5.80;99.90;;;;;;5014541;28;19977;-74
2023/11/30 01:31:40;;;;;;;;;;;5.80;99.90;;;;;;5014218;28;20442;-74
2023/11/30 01:34:05;;;;;;;;;;;5.80;99.90;;;;;;5014239;28;19916;-74
2023/11/30 01:36:31;;;;;;;;;;;5.80;99.90;;;;;;5013189;28;20464;-74
2023/11/30 01:38:56;;;;;;;;;;;5.80;99.90;;;;;;5008397;28;19964;-74
2023/11/30 01:41:22;;;;;;;;;;;5.80;99.90;;;;;;5014233;28;19964;-74
2023/11/30 01:43:47;;;;;;;;;;;5.80;99.90;;;;;;5014294;28;20288;-74
2023/11/30 01:46:13;;;;;;;;;;;5.80;99.90;;;;;;5013954;28;19909;-74
2023/11/30 01:48:39;;;;;;;;;;;5.90;99.90;;;;;;5013883;28;19909;-74
2023/11/30 01:51:06;;;;;;;;;;;5.90;99.90;;;;;;5012516;28;19924;-73
2023/11/30 01:53:32;;;;;;;;;;;5.90;99.90;;;;;;5014024;28;19993;-74
2023/11/30 01:55:58;;;;;;;;;;;5.90;99.90;;;;;;5005671;28;19910;-75
2023/11/30 01:58:24;;;;;;;;;;;5.90;99.90;;;;;;4994141;28;19910;-73
2023/11/30 02:00:50;;;;;;;;;;;5.90;99.90;;;;;;4994153;28;20500;-75
2023/11/30 02:03:16;;;;;;;;;;;5.80;99.90;;;;;;5009706;28;19909;-75
2023/11/30 02:05:42;;;;;;;;;;;5.80;99.90;;;;;;5013672;28;20388;-75
2023/11/30 02:08:07;;;;;;;;;;;5.80;99.90;;;;;;5013735;28;19960;-75
2023/11/30 02:10:33;;;;;;;;;;;5.80;99.90;;;;;;5013601;28;19913;-74
2023/11/30 02:12:58;;;;;;;;;;;5.80;99.90;;;;;;5013668;28;19910;-75
2023/11/30 02:15:24;;;;;;;;;;;5.80;99.90;;;;;;5013765;28;19909;-75
2023/11/30 02:17:49;;;;;;;;;;;5.80;99.90;;;;;;5012940;28;19921;-75
2023/11/30 02:20:16;;;;;;;;;;;5.90;99.90;;;;;;5012195;28;19918;-75
2023/11/30 02:22:41;;;;;;;;;;;5.90;99.90;;;;;;5012451;28;20376;-73
2023/11/30 02:25:07;;;;;;;;;;;6.00;99.90;;;;;;5013599;28;19909;-75
2023/11/30 02:27:32;;;;;;;;;;;6.00;99.90;;;;;;5009256;28;19917;-75
2023/11/30 02:29:58;;;;;;;;;;;6.00;99.90;;;;;;4993997;28;19910;-73
2023/11/30 02:32:23;;;;;;;;;;;6.00;99.90;;;;;;4992153;28;20316;-73
2023/11/30 02:34:49;;;;;;;;;;;6.00;99.90;;;;;;4996247;28;19909;-73
2023/11/30 02:37:14;;;;;;;;;;;6.10;99.90;;;;;;5013348;28;19917;-75
2023/11/30 02:39:40;;;;;;;;;;;6.00;99.90;;;;;;5013521;28;19910;-75
2023/11/30 02:42:05;;;;;;;;;;;6.00;99.90;;;;;;5028425;28;19913;-73
2023/11/30 02:44:31;;;;;;;;;;;5.90;99.90;;;;;;5013182;28;20004;-75
2023/11/30 02:46:56;;;;;;;;;;;6.00;99.90;;;;;;5013252;28;19967;-75
2023/11/30 02:49:22;;;;;;;;;;;6.00;99.90;;;;;;5016669;28;20257;-75
2023/11/30 02:51:47;;;;;;;;;;;6.10;99.90;;;;;;5029691;28;19917;-75
2023/11/30 02:54:13;;;;;;;;;;;6.00;99.90;;;;;;4997568;28;19910;-75
2023/11/30 02:56:39;;;;;;;;;;;6.10;99.90;;;;;;5011104;28;19948;-73
2023/11/30 02:59:05;;;;;;;;;;;6.10;99.90;;;;;;5017090;28;19940;-73
2023/11/30 03:01:30;;;;;;;;;;;6.10;99.90;;;;;;5016154;28;19969;-73
2023/11/30 03:03:55;;;;;;;;;;;6.20;99.90;;;;;;5016303;28;19913;-75
2023/11/30 03:06:21;;;;;;;;;;;6.20;99.90;;;;;;5016943;28;19914;-75
2023/11/30 03:08:46;;;;;;;;;;;6.10;99.90;;;;;;5016671;28;20427;-75
2023/11/30 03:11:12;;;;;;;;;;;6.10;99.90;;;;;;5017097;28;19917;-75
2023/11/30 03:13:39;;;;;;;;;;;6.20;99.90;;;;;;4999321;28;19971;-73
2023/11/30 03:16:04;;;;;;;;;;;6.10;99.90;;;;;;4997026;28;19910;-75
2023/11/30 03:18:30;;;;;;;;;;;6.10;99.90;;;;;;5003664;28;19913;-75
2023/11/30 03:20:55;;;;;;;;;;;6.10;99.90;;;;;;5016378;28;20384;-75
2023/11/30 03:23:21;;;;;;;;;;;6.10;99.90;;;;;;5015778;28;19916;-75
2023/11/30 03:25:46;;;;;;;;;;;6.00;99.90;;;;;;5014447;28;19914;-73
2023/11/30 03:28:12;;;;;;;;;;;6.00;99.90;;;;;;4996812;28;19917;-75
2023/11/30 03:30:37;;;;;;;;;;;6.00;99.90;;;;;;5005466;28;19914;-75
2023/11/30 03:33:03;;;;;;;;;;;5.90;99.90;;;;;;5020339;28;19921;-75
2023/11/30 03:35:28;;;;;;;;;;;5.90;99.90;;;;;;5016640;28;20409;-75
2023/11/30 03:37:54;;;;;;;;;;;5.90;99.90;;;;;;5016287;28;19916;-75
2023/11/30 03:40:19;;;;;;;;;;;5.90;99.90;;;;;;5016347;28;19986;-73
2023/11/30 03:42:45;;;;;;;;;;;5.90;99.90;;;;;;5016263;28;19914;-75
2023/11/30 03:45:10;;;;;;;;;;;5.90;99.90;;;;;;5016263;28;19936;-75
2023/11/30 03:47:36;;;;;;;;;;;6.00;99.90;;;;;;5016144;28;19914;-75
2023/11/30 03:50:01;;;;;;;;;;;5.90;99.90;;;;;;5016182;28;20392;-75
2023/11/30 03:52:27;;;;;;;;;;;6.00;99.90;;;;;;5015936;28;19936;-73
2023/11/30 03:54:52;;;;;;;;;;;6.10;99.90;;;;;;5015998;28;19909;-75
2023/11/30 03:57:18;;;;;;;;;;;6.10;99.90;;;;;;4996882;28;19964;-75
2023/11/30 03:59:43;;;;;;;;;;;6.10;99.90;;;;;;4995414;28;20396;-75
2023/11/30 04:02:09;;;;;;;;;;;6.10;99.90;;;;;;4994731;28;19914;-74
2023/11/30 04:04:38;;;;;;;;;;;6.10;99.90;;;;;;5011012;28;20008;-72
2023/11/30 04:07:03;;;;;;;;;;;6.10;99.90;;;;;;5016046;28;19917;-72
2023/11/30 04:09:29;;;;;;;;;;;6.10;99.90;;;;;;5015729;28;19909;-75
2023/11/30 04:11:54;;;;;;;;;;;6.10;99.90;;;;;;5013055;28;19914;-75
2023/11/30 04:14:20;;;;;;;;;;;6.10;99.90;;;;;;5015872;28;19917;-75
2023/11/30 04:16:45;;;;;;;;;;;6.20;99.90;;;;;;5015599;28;19909;-73
2023/11/30 04:19:11;;;;;;;;;;;6.20;99.90;;;;;;5012465;28;20358;-73
2023/11/30 04:21:37;;;;;;;;;;;6.10;99.90;;;;;;5015247;28;19920;-75
2023/11/30 04:24:02;;;;;;;;;;;6.20;99.90;;;;;;4998521;28;19909;-74
2023/11/30 04:26:28;;;;;;;;;;;6.20;99.90;;;;;;4995907;28;19909;-75
2023/11/30 04:28:53;;;;;;;;;;;6.20;99.90;;;;;;5010293;28;19935;-75
2023/11/30 04:31:19;;;;;;;;;;;6.20;99.90;;;;;;4996005;28;19913;-73
2023/11/30 04:33:44;;;;;;;;;;;6.30;99.90;;;;;;5010752;28;20296;-75
2023/11/30 04:36:11;;;;;;;;;;;6.20;99.90;;;;;;4995876;28;19917;-75
2023/11/30 04:38:36;;;;;;;;;;;6.20;99.90;;;;;;5009214;28;20403;-74
2023/11/30 04:41:02;;;;;;;;;;;6.30;99.90;;;;;;5011741;28;19913;-75
2023/11/30 04:43:27;;;;;;;;;;;6.30;99.90;;;;;;5009662;28;19921;-74
2023/11/30 04:45:53;;;;;;;;;;;6.30;99.90;;;;;;5015140;28;19960;-73
2023/11/30 04:48:18;;;;;;;;;;;6.20;99.90;;;;;;5014967;28;20004;-75
2023/11/30 04:50:44;;;;;;;;;;;6.30;99.90;;;;;;5014620;28;20398;-74
2023/11/30 04:53:09;;;;;;;;;;;6.30;99.90;;;;;;5014976;28;20017;-75
2023/11/30 04:55:35;;;;;;;;;;;6.30;99.90;;;;;;5009726;28;19913;-75
2023/11/30 04:58:00;;;;;;;;;;;6.30;99.90;;;;;;5003005;28;19976;-73
2023/11/30 05:00:26;;;;;;;;;;;6.30;99.90;;;;;;5015311;28;19913;-72
2023/11/30 05:02:52;;;;;;;;;;;6.30;99.90;;;;;;5014429;28;20446;-75
2023/11/30 05:05:18;;;;;;;;;;;6.30;99.90;;;;;;5015043;28;19909;-74
2023/11/30 05:07:44;;;;;;;;;;;6.30;99.90;;;;;;5014642;28;19910;-74
2023/11/30 05:10:09;;;;;;;;;;;6.30;99.90;;;;;;5014400;28;19955;-74
2023/11/30 05:12:35;;;;;;;;;;;6.30;99.90;;;;;;5013127;28;19914;-73
2023/11/30 05:15:01;;;;;;;;;;;6.30;99.90;;;;;;5014529;28;20361;-75
2023/11/30 05:17:26;;;;;;;;;;;6.40;99.90;;;;;;5013059;28;19913;-75
2023/11/30 05:19:51;;;;;;;;;;;6.40;99.90;;;;;;5012391;28;19924;-75
2023/11/30 05:22:17;;;;;;;;;;;6.40;99.90;;;;;;5029435;28;20387;-72
2023/11/30 05:24:43;;;;;;;;;;;6.40;99.90;;;;;;5000716;28;20023;-72
2023/11/30 05:27:08;;;;;;;;;;;6.40;99.90;;;;;;5019880;28;19916;-75
2023/11/30 05:29:34;;;;;;;;;;;6.40;99.90;;;;;;5001301;28;19959;-74
2023/11/30 05:31:59;;;;;;;;;;;6.40;99.90;;;;;;5013738;28;20300;-74
2023/11/30 05:34:25;;;;;;;;;;;6.50;99.90;;;;;;4994409;28;19980;-74
2023/11/30 05:36:50;;;;;;;;;;;6.40;99.90;;;;;;4994779;28;19921;-73
2023/11/30 05:39:16;;;;;;;;;;;6.40;99.90;;;;;;4994560;28;19920;-72
2023/11/30 05:41:41;;;;;;;;;;;6.40;99.90;;;;;;4994673;28;19964;-74
2023/11/30 05:44:07;;;;;;;;;;;6.40;99.90;;;;;;4994339;28;19917;-75
2023/11/30 05:46:32;;;;;;;;;;;6.40;99.90;;;;;;4994350;28;19952;-74
2023/11/30 05:48:58;;;;;;;;;;;6.40;99.90;;;;;;5011498;28;19957;-74
2023/11/30 05:51:23;;;;;;;;;;;6.40;99.90;;;;;;5013924;28;19980;-73
2023/11/30 05:53:49;;;;;;;;;;;6.50;99.90;;;;;;5013984;28;20398;-74
2023/11/30 05:56:14;;;;;;;;;;;6.40;99.90;;;;;;5010524;28;20354;-74
2023/11/30 05:58:40;;;;;;;;;;;6.40;99.90;;;;;;4999562;28;19917;-74
2023/11/30 06:01:06;;;;;;;;;;;6.50;99.90;;;;;;4994457;28;19910;-74
2023/11/30 06:03:31;;;;;;;;;;;6.50;99.90;;;;;;5003307;28;20379;-73
2023/11/30 06:05:57;;;;;;;;;;;6.40;99.90;;;;;;5013752;28;19997;-74
2023/11/30 06:08:24;;;;;;;;;;;6.40;99.90;;;;;;5013289;28;19920;-75
2023/11/30 06:10:50;;;;;;;;;;;6.40;99.90;;;;;;5012678;28;19944;-75
2023/11/30 06:13:16;;;;;;;;;;;6.40;99.90;;;;;;4997560;28;19992;-75
2023/11/30 06:15:41;;;;;;;;;;;6.50;99.90;;;;;;4993832;28;19945;-74
2023/11/30 06:18:07;;;;;;;;;;;6.50;99.90;;;;;;4999811;28;20352;-73
2023/11/30 06:20:32;;;;;;;;;;;6.50;99.90;;;;;;5009451;28;20016;-74
2023/11/30 06:22:58;;;;;;;;;;;6.50;99.90;;;;;;5006289;28;19910;-74
2023/11/30 06:25:23;;;;;;;;;;;6.40;99.90;;;;;;4993977;28;20352;-74
2023/11/30 06:27:49;;;;;;;;;;;6.40;99.90;;;;;;4999501;28;19982;-74
2023/11/30 06:30:14;;;;;;;;;;;6.40;99.90;;;;;;4997732;28;19916;-73
2023/11/30 06:32:40;;;;;;;;;;;6.40;99.90;;;;;;5012692;28;19948;-74
2023/11/30 06:35:06;;;;;;;;;;;6.40;99.90;;;;;;4997903;28;19914;-74
2023/11/30 06:37:31;;;;;;;;;;;6.40;99.90;;;;;;5006108;28;19910;-73
2023/11/30 06:39:57;;;;;;;;;;;6.40;99.90;;;;;;4999725;28;19921;-74
2023/11/30 06:42:22;;;;;;;;;;;6.40;99.90;;;;;;4993358;28;19918;-73
2023/11/30 06:44:48;;;;;;;;;;;6.40;99.90;;;;;;5003323;28;20447;-73
2023/11/30 06:47:13;;;;;;;;;;;6.30;99.90;;;;;;5010946;28;19910;-74
2023/11/30 06:49:39;;;;;;;;;;;6.40;99.90;;;;;;4993353;28;19918;-73
2023/11/30 06:52:04;;;;;;;;;;;6.40;99.90;;;;;;4995293;28;19913;-74
2023/11/30 06:54:30;;;;;;;;;;;6.40;99.90;;;;;;5002988;28;19918;-74
2023/11/30 06:56:56;;;;;;;;;;;6.30;99.90;;;;;;5009296;28;20348;-74
2023/11/30 06:59:21;;;;;;;;;;;6.30;99.90;;;;;;5012553;28;19914;-73
2023/11/30 07:01:48;;;;;;;;;;;6.30;99.90;;;;;;5013277;28;19960;-73
2023/11/30 07:04:14;;;;;;;;;;;6.30;99.90;;;;;;5012067;28;20424;-73
2023/11/30 07:06:40;;;;;;;;;;;6.20;99.90;;;;;;5011361;28;19910;-74
2023/11/30 07:09:06;;;;;;;;;;;6.20;99.90;;;;;;5007784;28;19914;-74
2023/11/30 07:11:31;;;;;;;;;;;6.20;99.90;;;;;;4993278;28;19914;-73
2023/11/30 07:13:57;;;;;;;;;;;6.20;99.90;;;;;;5012824;28;20269;-73
2023/11/30 07:16:22;;;;;;;;;;;6.10;99.90;;;;;;5012708;28;19920;-73
2023/11/30 07:18:48;;;;;;;;;;;6.20;99.90;;;;;;5012753;28;19913;-74
2023/11/30 07:21:16;;;;;;;;;;;6.20;99.90;;;;;;5012254;28;20404;-73
2023/11/30 07:23:42;;;;;;;;;;;6.20;99.90;;;;;;5002901;28;19913;-74
2023/11/30 07:26:14;;;;;;;;;;;6.10;99.90;;;;;;5005385;28;19921;-73
2023/11/30 07:28:40;;;;;;;;;;;6.10;99.90;;;;;;5012145;28;19971;-73
2023/11/30 07:31:06;;;;;;;;;;;6.10;99.90;;;;;;5005308;28;19957;-74
2023/11/30 07:33:32;;;;;;;;;;;6.10;99.90;;;;;;5009909;28;20376;-75
2023/11/30 07:35:57;;;;;;;;;;;6.10;99.90;;;;;;5011865;28;19967;-73
2023/11/30 07:38:23;;;;;;;;;;;6.10;99.90;;;;;;5012332;28;19987;-73
2023/11/30 07:40:48;;;;;;;;;;;6.10;99.90;;;;;;5004151;28;19918;-73
2023/11/30 07:43:13;;;;;;;;;;;6.10;99.90;;;;;;5008191;28;20393;-73
2023/11/30 07:45:39;;;;;;;;;;;6.10;99.90;;;;;;5002732;28;19976;-74
2023/11/30 07:48:04;;;;;;;;;;;6.20;99.90;;;;;;5009634;28;19952;-74
2023/11/30 07:50:30;;;;;;;;;;;6.10;99.90;;;;;;5010609;28;20314;-74
2023/11/30 07:52:56;;;;;;;;;;;6.10;99.90;;;;;;5000470;28;19918;-73
2023/11/30 07:55:21;;;;;;;;;;;6.10;99.90;;;;;;5009121;28;19914;-74
2023/11/30 07:57:48;;;;;;;;;;;6.10;99.90;;;;;;4995907;28;19976;-74
2023/11/30 08:00:15;;;;;;;;;;;6.20;99.90;;;;;;4995049;28;20439;-74
2023/11/30 08:02:41;;;;;;;;;;;6.20;99.90;;;;;;4995010;28;20009;-74
2023/11/30 08:05:07;;;;;;;;;;;6.20;99.90;;;;;;5011398;28;19926;-74
2023/11/30 08:07:32;;;;;;;;;;;6.20;99.90;;;;;;4996213;28;19976;-74
2023/11/30 08:09:58;;;;;;;;;;;6.20;99.90;;;;;;5009913;28;19920;-74
2023/11/30 08:12:23;;;;;;;;;;;6.20;99.90;;;;;;5006453;28;19921;-74
2023/11/30 08:14:49;;;;;;;;;;;6.30;99.90;;;;;;4998185;28;19920;-74
2023/11/30 08:17:14;;;;;;;;;;;6.40;99.90;;;;;;5001335;28;19926;-74
2023/11/30 08:19:40;;;;;;;;;;;6.40;99.90;;;;;;4997613;28;19917;-74
2023/11/30 08:22:08;;;;;;;;;;;6.40;99.90;;;;;;4997029;28;19917;-73
2023/11/30 08:24:34;;;;;;;;;;;6.40;99.90;;;;;;5011098;28;19929;-74
2023/11/30 08:26:59;;;;;;;;;;;6.40;99.90;;;;;;5012485;28;20295;-74
2023/11/30 08:29:25;;;;;;;;;;;6.50;99.90;;;;;;5003477;28;19921;-73
2023/11/30 08:31:51;;;;;;;;;;;6.50;99.90;;;;;;5007884;28;20024;-73
2023/11/30 08:34:16;;;;;;;;;;;6.50;99.90;;;;;;4994715;28;19921;-73
2023/11/30 08:36:42;;;;;;;;;;;6.50;99.90;;;;;;4997061;28;19914;-73
2023/11/30 08:39:08;;;;;;;;;;;6.50;99.90;;;;;;4997409;28;19985;-74
2023/11/30 08:41:36;;;;;;;;;;;6.60;99.90;;;;;;5012474;28;19956;-74
2023/11/30 08:44:05;;;;;;;;;;;6.60;99.90;;;;;;5011871;28;19913;-73
2023/11/30 08:46:33;;;;;;;;;;;6.60;99.90;;;;;;4997835;28;19988;-73
2023/11/30 08:48:59;;;;;;;;;;;6.70;99.90;;;;;;5002913;28;19913;-74
2023/11/30 08:51:24;;;;;;;;;;;6.60;99.90;;;;;;4999119;28;19940;-74
2023/11/30 08:53:50;;;;;;;;;;;6.70;99.90;;;;;;5002792;28;19953;-74
2023/11/30 08:56:15;;;;;;;;;;;6.80;99.90;;;;;;5005294;28;19921;-73
2023/11/30 08:58:41;;;;;;;;;;;6.80;99.90;;;;;;4995190;28;20016;-76
2023/11/30 09:01:07;;;;;;;;;;;6.90;99.90;;;;;;5005817;28;19922;-74
2023/11/30 09:03:32;;;;;;;;;;;6.90;99.90;;;;;;5006226;28;20373;-76
2023/11/30 09:05:58;;;;;;;;;;;6.90;99.90;;;;;;5007287;28;20451;-76
2023/11/30 09:08:23;;;;;;;;;;;6.90;99.90;;;;;;5011655;28;19924;-74
2023/11/30 09:10:49;;;;;;;;;;;7.00;99.90;;;;;;5000138;28;20296;-76
2023/11/30 09:13:14;;;;;;;;;;;7.00;99.90;;;;;;5002314;28;20290;-73
2023/11/30 09:15:40;;;;;;;;;;;7.00;99.90;;;;;;4994409;28;20404;-73
2023/11/30 09:18:07;;;;;;;;;;;7.00;99.90;;;;;;4996995;28;19971;-76
2023/11/30 09:20:33;;;;;;;;;;;7.10;99.90;;;;;;5007082;28;19957;-75
2023/11/30 09:22:58;;;;;;;;;;;7.20;99.90;;;;;;5006346;28;19945;-74
2023/11/30 09:25:24;;;;;;;;;;;7.30;99.90;;;;;;4999817;28;19917;-73
2023/11/30 09:27:49;;;;;;;;;;;7.30;99.90;;;;;;5008166;28;19921;-74
2023/11/30 09:30:15;;;;;;;;;;;7.40;99.90;;;;;;5001582;28;19924;-75
2023/11/30 09:32:40;;;;;;;;;;;7.40;99.90;;;;;;4998470;28;19932;-74
2023/11/30 09:35:06;;;;;;;;;;;7.50;99.90;;;;;;5008032;28;19914;-75
2023/11/30 09:37:32;;;;;;;;;;;7.50;99.90;;;;;;5011972;28;19949;-75
2023/11/30 09:39:58;;;;;;;;;;;7.60;99.90;;;;;;5011250;28;19917;-74
2023/11/30 09:42:26;;;;;;;;;;;7.60;99.90;;;;;;5007322;28;19917;-75
2023/11/30 09:44:57;;;;;;;;;;;7.60;99.90;;;;;;5001608;28;19917;-75
2023/11/30 09:47:23;;;;;;;;;;;7.60;99.90;;;;;;5001457;28;19914;-74
2023/11/30 09:49:49;;;;;;;;;;;7.70;99.90;;;;;;4991582;28;19918;-74
2023/11/30 09:52:14;;;;;;;;;;;7.70;99.90;;;;;;5000243;28;19921;-75
2023/11/30 09:54:40;;;;;;;;;;;7.70;99.90;;;;;;5010511;28;20008;-75
2023/11/30 09:57:05;;;;;;;;;;;7.70;99.90;;;;;;4997494;28;19980;-75
2023/11/30 09:59:30;;;;;;;;;;;7.80;99.90;;;;;;5010937;28;19913;-73
2023/11/30 10:01:58;;;;;;;;;;;7.80;99.90;;;;;;5004707;28;19918;-73
2023/11/30 10:04:25;;;;;;;;;;;7.80;99.90;;;;;;5005639;28;20079;-73
2023/11/30 10:06:53;;;;;;;;;;;7.90;99.90;;;;;;5011350;28;20312;-74
2023/11/30 10:09:19;;;;;;;;;;;7.90;99.90;;;;;;5011342;28;20372;-75
2023/11/30 10:11:44;;;;;;;;;;;8.00;99.90;;;;;;5009919;28;20040;-73
2023/11/30 10:14:10;;;;;;;;;;;8.00;99.90;;;;;;5004938;28;19914;-73
2023/11/30 10:16:36;;;;;;;;;;;7.90;99.90;;;;;;5010206;28;20304;-73
2023/11/30 10:19:03;;;;;;;;;;;8.00;99.90;;;;;;5009741;28;19928;-73
2023/11/30 10:21:29;;;;;;;;;;;8.00;99.90;;;;;;5004594;28;19953;-73
2023/11/30 10:23:56;;;;;;;;;;;8.00;99.90;;;;;;4994598;28;20023;-73
2023/11/30 10:26:22;;;;;;;;;;;8.00;99.90;;;;;;5010740;28;19924;-73
2023/11/30 10:28:51;;;;;;;;;;;8.10;99.90;;;;;;4997630;28;19918;-74
2023/11/30 10:31:17;;;;;;;;;;;8.10;99.90;;;;;;4991473;28;20452;-73
2023/11/30 10:33:44;;;;;;;;;;;8.30;99.90;;;;;;4993072;28;19957;-73
2023/11/30 10:36:11;;;;;;;;;;;8.30;99.90;;;;;;5010061;28;19914;-74
2023/11/30 10:38:38;;;;;;;;;;;8.30;99.90;;;;;;5011515;28;20000;-74
2023/11/30 10:41:12;;;;;;;;;;;8.20;99.90;;;;;;5011814;28;19968;-73
2023/11/30 10:43:43;;;;;;;;;;;8.20;99.90;;;;;;5011378;28;19917;-74
2023/11/30 10:46:09;;;;;;;;;;;8.10;99.90;;;;;;5006922;28;20406;-74
2023/11/30 10:48:36;;;;;;;;;;;8.20;99.90;;;;;;5011892;28;19913;-73
2023/11/30 10:51:03;;;;;;;;;;;8.20;99.90;;;;;;5010210;28;19933;-73
2023/11/30 10:53:47;;;;;;;;;;;8.20;99.90;;;;;;5010463;28;19918;-73
2023/11/30 10:56:13;;;;;;;;;;;8.20;99.90;;;;;;5001610;28;20003;-74
2023/11/30 10:58:39;;;;;;;;;;;8.30;99.90;;;;;;4994038;28;20337;-73
2023/11/30 11:01:08;;;;;;;;;;;8.20;99.90;;;;;;5010474;28;20023;-73
2023/11/30 11:03:34;;;;;;;;;;;8.30;99.90;;;;;;5011334;28;20330;-74
2023/11/30 11:06:01;;;;;;;;;;;8.30;99.90;;;;;;5010257;28;19914;-73
2023/11/30 11:08:27;;;;;;;;;;;8.30;99.90;;;;;;4999530;28;19925;-73
2023/11/30 11:10:53;;;;;;;;;;;8.20;99.90;;;;;;5003523;28;20343;-73
2023/11/30 11:13:23;;;;;;;;;;;8.20;99.90;;;;;;5008093;28;19920;-74
2023/11/30 11:15:58;;;;;;;;;;;8.10;99.90;;;;;;5005780;28;20004;-74
2023/11/30 11:18:35;;;;;;;;;;;8.20;99.90;;;;;;5006766;28;19967;-73
2023/11/30 11:21:01;;;;;;;;;;;8.20;99.90;;;;;;4998963;28;19918;-73
2023/11/30 11:23:33;;;;;;;;;;;8.20;99.90;;;;;;5012627;28;19922;-74
2023/11/30 11:26:00;;;;;;;;;;;8.20;99.90;;;;;;5014060;28;19956;-73
2023/11/30 11:28:26;;;;;;;;;;;8.20;99.90;;;;;;5009364;28;20347;-73
2023/11/30 11:30:51;;;;;;;;;;;8.20;99.90;;;;;;5007005;28;19914;-74
2023/11/30 11:33:24;;;;;;;;;;;8.20;99.90;;;;;;5014049;28;19932;-74
2023/11/30 11:35:50;;;;;;;;;;;8.20;99.90;;;;;;5012151;28;19929;-74
2023/11/30 11:38:15;;;;;;;;;;;8.30;99.90;;;;;;5013128;28;19913;-74
2023/11/30 11:40:41;;;;;;;;;;;8.30;99.90;;;;;;5009114;28;19924;-73
2023/11/30 11:43:07;;;;;;;;;;;8.30;99.90;;;;;;5003109;28;20300;-73
2023/11/30 11:45:33;;;;;;;;;;;8.30;99.90;;;;;;5010668;28;19917;-74
2023/11/30 11:47:58;;;;;;;;;;;8.40;99.90;;;;;;5013055;28;19913;-73
2023/11/30 11:50:24;;;;;;;;;;;8.40;99.90;;;;;;5006380;28;19928;-74
2023/11/30 11:52:50;;;;;;;;;;;8.50;99.90;;;;;;5009019;28;19951;-74
2023/11/30 11:55:15;;;;;;;;;;;8.50;99.90;;;;;;5009734;28;20424;-73
2023/11/30 11:57:41;;;;;;;;;;;8.50;99.90;;;;;;5012509;28;19956;-73
2023/11/30 12:00:10;;;;;;;;;;;8.50;99.90;;;;;;5013159;28;20447;-74
2023/11/30 12:02:35;;;;;;;;;;;8.50;99.90;;;;;;5008121;28;19914;-73
2023/11/30 12:05:05;;;;;;;;;;;8.50;99.90;;;;;;5012474;28;19971;-73
2023/11/30 12:07:30;;;;;;;;;;;8.50;99.90;;;;;;5012496;28;19913;-74
2023/11/30 12:09:56;;;;;;;;;;;8.50;99.90;;;;;;5010849;28;19924;-74
2023/11/30 12:12:32;;;;;;;;;;;8.60;99.90;;;;;;5012451;28;20363;-74
2023/11/30 12:14:57;;;;;;;;;;;8.50;99.90;;;;;;5010159;28;19918;-74
2023/11/30 12:17:23;;;;;;;;;;;8.60;99.90;;;;;;4996050;28;20395;-74
2023/11/30 12:19:48;;;;;;;;;;;8.60;99.90;;;;;;5004038;28;19921;-74
2023/11/30 12:22:14;;;;;;;;;;;8.70;99.90;;;;;;4995254;28;19960;-74
2023/11/30 12:24:39;;;;;;;;;;;8.70;99.90;;;;;;4995399;28;20008;-74
2023/11/30 12:27:05;;;;;;;;;;;8.70;99.90;;;;;;5014410;28;19914;-74
2023/11/30 12:29:30;;;;;;;;;;;8.70;99.90;;;;;;5008113;28;20277;-73
2023/11/30 12:31:56;;;;;;;;;;;8.70;99.90;;;;;;4994748;28;19968;-74
2023/11/30 12:34:21;;;;;;;;;;;8.70;99.90;;;;;;5000791;28;19917;-74
2023/11/30 12:36:47;;;;;;;;;;;8.70;99.90;;;;;;5013104;28;19917;-74
2023/11/30 12:39:12;;;;;;;;;;;8.70;99.90;;;;;;5012138;28;19917;-74
2023/11/30 12:41:38;;;;;;;;;;;8.80;99.90;;;;;;5012362;28;19914;-74
2023/11/30 12:44:05;;;;;;;;;;;8.90;99.90;;;;;;5012488;28;20336;-74
2023/11/30 12:46:30;;;;;;;;;;;8.90;99.90;;;;;;4998551;28;19922;-74
2023/11/30 12:48:56;;;;;;;;;;;8.90;99.90;;;;;;5021141;28;20186;-74
2023/11/30 12:51:22;;;;;;;;;;;8.90;99.90;;;;;;5003617;28;19971;-74
2023/11/30 12:53:50;;;;;;;;;;;8.90;99.90;;;;;;5004096;28;20414;-74
2023/11/30 12:56:16;;;;;;;;;;;8.90;99.90;;;;;;5005547;28;19918;-74
2023/11/30 12:58:41;;;;;;;;;;;9.00;99.90;;;;;;5002430;28;19917;-74
2023/11/30 13:01:07;;;;;;;;;;;9.00;99.90;;;;;;5007305;28;19921;-76
2023/11/30 13:03:33;;;;;;;;;;;9.00;99.90;;;;;;5011248;28;20355;-76
2023/11/30 13:05:59;;;;;;;;;;;9.10;99.90;;;;;;5011696;28;19957;-76
2023/11/30 13:08:24;;;;;;;;;;;9.10;99.90;;;;;;5003017;28;20353;-75
2023/11/30 13:10:50;;;;;;;;;;;9.20;99.90;;;;;;5003294;28;19972;-76
2023/11/30 13:13:15;;;;;;;;;;;9.20;99.90;;;;;;5002625;28;20078;-76
2023/11/30 13:15:42;;;;;;;;;;;9.20;99.90;;;;;;5012419;28;19924;-75
2023/11/30 13:18:07;;;;;;;;;;;9.20;99.90;;;;;;5011879;28;19932;-76
2023/11/30 13:20:33;;;;;;;;;;;9.30;99.90;;;;;;5006234;28;19922;-75
2023/11/30 13:22:58;;;;;;;;;;;9.40;99.90;;;;;;4998594;28;20017;-76
2023/11/30 13:25:24;;;;;;;;;;;9.40;99.90;;;;;;5009811;28;20008;-76
2023/11/30 13:27:49;;;;;;;;;;;9.40;99.90;;;;;;4992095;28;20009;-76
2023/11/30 13:30:16;;;;;;;;;;;9.50;99.90;;;;;;4992387;28;19918;-75
2023/11/30 13:32:41;;;;;;;;;;;9.50;99.90;;;;;;5006033;28;19932;-76
2023/11/30 13:35:09;;;;;;;;;;;9.60;99.90;;;;;;5009399;28;21675;-75
2023/11/30 13:37:34;;;;;;;;;;;9.70;99.90;;;;;;4996374;28;19964;-76
2023/11/30 13:40:00;;;;;;;;;;;9.80;99.90;;;;;;5011175;28;19913;-76
2023/11/30 13:42:26;;;;;;;;;;;9.90;99.90;;;;;;5010906;28;19917;-75
2023/11/30 13:44:51;;;;;;;;;;;10.00;99.90;;;;;;4993546;28;19944;-75
2023/11/30 13:47:17;;;;;;;;;;;10.00;99.90;;;;;;4992153;28;19922;-75
2023/11/30 13:49:42;;;;;;;;;;;10.10;99.90;;;;;;4991768;28;20388;-76
2023/11/30 13:52:08;;;;;;;;;;;10.20;99.90;;;;;;4991959;28;20013;-76
2023/11/30 13:54:34;;;;;;;;;;;10.30;99.90;;;;;;4991920;28;19914;-76
2023/11/30 13:56:59;;;;;;;;;;;10.30;99.90;;;;;;5008101;28;19998;-76
2023/11/30 13:59:25;;;;;;;;;;;10.30;99.90;;;;;;5002297;28;19937;-76
2023/11/30 14:01:51;;;;;;;;;;;10.40;99.90;;;;;;5010773;28;19928;-75
2023/11/30 14:04:17;;;;;;;;;;;10.40;99.90;;;;;;5011086;28;19952;-76
2023/11/30 14:06:43;;;;;;;;;;;10.40;99.90;;;;;;5001364;28;19913;-76
2023/11/30 14:09:13;;;;;;;;;;;10.40;99.90;;;;;;5002783;28;19920;-75
2023/11/30 14:11:39;;;;;;;;;;;10.40;99.90;;;;;;5003444;28;19917;-75
2023/11/30 14:14:05;;;;;;;;;;;10.50;99.90;;;;;;5006575;28;19918;-76
2023/11/30 14:16:31;;;;;;;;;;;10.60;99.90;;;;;;5005629;28;20012;-76
2023/11/30 14:18:57;;;;;;;;;;;10.70;99.90;;;;;;4998027;28;20012;-75
2023/11/30 14:21:23;;;;;;;;;;;10.80;99.90;;;;;;4994167;28;19918;-76